Time;durP1;ratioP1;P1;durP2;ratioP2;P2;SDS_P1;SDS_P2;PMS_P1;PMS_P2;Temp;Humidity;BMP_temperature;BMP_pressure;BME280_temperature;BME280_humidity;BME280_pressure;Samples;Min_cycle;Max_cycle;Signal;HPM_P1;HPM_P2
2023/07/13 00:00:44;;;;;;;1999.90;999.90;;;17.90;96.90;;;;;;5021690;28;20428;-70
2023/07/13 00:03:13;;;;;;;1999.90;999.90;;;17.80;97.70;;;;;;5021108;28;20447;-70
2023/07/13 00:05:41;;;;;;;1999.90;999.90;;;17.80;98.50;;;;;;5022579;28;20171;-70
2023/07/13 00:08:08;;;;;;;1999.90;999.90;;;17.80;99.20;;;;;;5022212;28;20410;-70
2023/07/13 00:10:33;;;;;;;1999.90;999.90;;;17.70;99.90;;;;;;5021138;28;20430;-70
2023/07/13 00:12:59;;;;;;;1999.90;999.90;;;17.70;99.90;;;;;;5020321;28;20454;-69
2023/07/13 00:15:27;;;;;;;1999.90;999.90;;;17.70;99.90;;;;;;5019124;28;20180;-70
2023/07/13 00:17:54;;;;;;;1999.90;999.90;;;17.70;99.90;;;;;;5014530;28;20178;-70
2023/07/13 00:20:22;;;;;;;1999.90;999.90;;;17.70;99.90;;;;;;5014412;28;20426;-70
2023/07/13 00:22:49;;;;;;;1999.90;999.90;;;17.70;99.90;;;;;;5014307;28;20475;-70
2023/07/13 00:25:16;;;;;;;1999.90;999.90;;;17.60;99.90;;;;;;5014551;28;20411;-70
2023/07/13 00:27:43;;;;;;;1999.90;999.90;;;17.50;99.90;;;;;;5014410;28;20411;-70
2023/07/13 00:30:10;;;;;;;1999.90;999.90;;;17.50;99.90;;;;;;5014255;28;20430;-70
2023/07/13 00:32:35;;;;;;;1999.90;999.90;;;17.50;99.90;;;;;;5014013;28;20430;-70
2023/07/13 00:35:03;;;;;;;1999.90;999.90;;;17.50;99.90;;;;;;5014202;28;20881;-70
2023/07/13 00:37:29;;;;;;;1999.90;999.90;;;17.50;99.90;;;;;;5013888;28;20641;-70
2023/07/13 00:39:54;;;;;;;1999.90;999.90;;;17.40;99.90;;;;;;5014165;28;20404;-70
2023/07/13 00:42:20;;;;;;;1999.90;999.90;;;17.40;99.90;;;;;;5013779;28;20487;-70
2023/07/13 00:45:05;;;;;;;1999.90;999.90;;;17.40;99.90;;;;;;5013920;28;20212;-70
2023/07/13 00:47:31;;;;;;;1999.90;999.90;;;17.30;99.90;;;;;;5013841;28;20255;-69
2023/07/13 00:49:57;;;;;;;1999.90;999.90;;;17.30;99.90;;;;;;5013962;28;20447;-70
2023/07/13 00:52:23;;;;;;;1999.90;999.90;;;17.30;99.90;;;;;;5013648;28;20172;-72
2023/07/13 00:54:49;;;;;;;1999.90;999.90;;;17.30;99.90;;;;;;5013951;28;20419;-70
2023/07/13 00:57:18;;;;;;;1999.90;999.90;;;17.30;99.90;;;;;;5013860;28;20415;-70
2023/07/13 00:59:48;;;;;;;1999.90;999.90;;;17.30;99.90;;;;;;5013687;28;20222;-70
2023/07/13 01:02:13;;;;;;;1999.90;999.90;;;17.20;99.90;;;;;;5013337;28;20439;-70
2023/07/13 01:04:39;;;;;;;1999.90;999.90;;;17.20;99.90;;;;;;5013627;28;20459;-70
2023/07/13 01:07:06;;;;;;;1999.90;999.90;;;17.20;99.90;;;;;;5013744;28;20172;-70
2023/07/13 01:09:32;;;;;;;1999.90;999.90;;;17.20;99.90;;;;;;5013652;28;20283;-70
2023/07/13 01:11:59;;;;;;;1999.90;999.90;;;17.20;99.90;;;;;;5013243;28;20584;-70
2023/07/13 01:14:24;;;;;;;1999.90;999.90;;;17.10;99.90;;;;;;5013423;28;20184;-70
2023/07/13 01:16:50;;;;;;;1999.90;999.90;;;17.10;99.90;;;;;;5013432;28;20458;-70
2023/07/13 01:19:36;;;;;;;1999.90;999.90;;;17.10;99.90;;;;;;5013653;28;20185;-70
2023/07/13 01:22:18;;;;;;;1999.90;999.90;;;17.00;99.90;;;;;;5013115;28;20424;-69
2023/07/13 01:24:46;;;;;;;1999.90;999.90;;;17.00;99.90;;;;;;5013279;28;20459;-72
2023/07/13 01:27:14;;;;;;;1999.90;999.90;;;16.80;99.90;;;;;;5013362;28;20412;-70
2023/07/13 01:29:43;;;;;;;1999.90;999.90;;;16.80;99.90;;;;;;5013220;28;20410;-70
2023/07/13 01:32:11;;;;;;;1999.90;999.90;;;16.80;99.90;;;;;;5012771;28;20424;-70
2023/07/13 01:34:37;;;;;;;1999.90;999.90;;;16.70;99.90;;;;;;5013162;28;20400;-72
2023/07/13 01:37:03;;;;;;;1999.90;999.90;;;16.70;99.90;;;;;;5013196;28;20418;-69
2023/07/13 01:39:29;;;;;;;1999.90;999.90;;;16.60;99.90;;;;;;5012990;28;20417;-72
2023/07/13 01:41:55;;;;;;;1999.90;999.90;;;16.60;99.90;;;;;;5012668;28;20426;-73
2023/07/13 01:44:20;;;;;;;1999.90;999.90;;;16.60;99.90;;;;;;5012934;28;20225;-70
2023/07/13 01:46:46;;;;;;;1999.90;999.90;;;16.60;99.90;;;;;;5012979;28;20170;-70
2023/07/13 01:49:11;;;;;;;1999.90;999.90;;;16.60;99.90;;;;;;5012180;28;20171;-70
2023/07/13 01:51:37;;;;;;;1999.90;999.90;;;16.60;99.90;;;;;;5012648;28;20187;-70
2023/07/13 01:54:03;;;;;;;1999.90;999.90;;;16.70;99.90;;;;;;5012893;28;20175;-71
2023/07/13 01:56:28;;;;;;;1999.90;999.90;;;16.50;99.90;;;;;;5012796;28;20176;-70
2023/07/13 01:58:54;;;;;;;1999.90;999.90;;;16.50;99.90;;;;;;5012664;28;20236;-70
2023/07/13 02:01:19;;;;;;;1999.90;999.90;;;16.50;99.90;;;;;;5012376;28;20189;-73
2023/07/13 02:03:46;;;;;;;1999.90;999.90;;;16.50;99.90;;;;;;5012666;28;20586;-70
2023/07/13 02:06:12;;;;;;;1999.90;999.90;;;16.50;99.90;;;;;;5012642;28;20173;-70
2023/07/13 02:08:38;;;;;;;1999.90;999.90;;;16.50;99.90;;;;;;5012653;28;20420;-69
2023/07/13 02:11:03;;;;;;;1999.90;999.90;;;16.40;99.90;;;;;;5012460;28;20191;-72
2023/07/13 02:13:29;;;;;;;1999.90;999.90;;;16.50;99.90;;;;;;5012836;28;20204;-70
2023/07/13 02:15:54;;;;;;;1999.90;999.90;;;16.50;99.90;;;;;;5012644;28;20600;-71
2023/07/13 02:18:20;;;;;;;1999.90;999.90;;;16.50;99.90;;;;;;5012709;28;20172;-72
2023/07/13 02:20:46;;;;;;;1999.90;999.90;;;16.40;99.90;;;;;;5012308;28;20246;-72
2023/07/13 02:23:12;;;;;;;1999.90;999.90;;;16.30;99.90;;;;;;5012080;28;20199;-72
2023/07/13 02:25:37;;;;;;;1999.90;999.90;;;16.40;99.90;;;;;;5012483;28;20199;-70
2023/07/13 02:28:03;;;;;;;1999.90;999.90;;;16.30;99.90;;;;;;5012463;28;20404;-72
2023/07/13 02:30:30;;;;;;;1999.90;999.90;;;16.30;99.90;;;;;;5012196;28;20515;-70
2023/07/13 02:32:57;;;;;;;1999.90;999.90;;;16.30;99.90;;;;;;5012087;28;20167;-70
2023/07/13 02:35:23;;;;;;;1999.90;999.90;;;16.30;99.90;;;;;;5012646;28;20944;-71
2023/07/13 02:37:48;;;;;;;1999.90;999.90;;;16.30;99.90;;;;;;5012273;28;20407;-70
2023/07/13 02:40:14;;;;;;;1999.90;999.90;;;16.20;99.90;;;;;;5012427;28;20202;-71
2023/07/13 02:42:40;;;;;;;1999.90;999.90;;;16.20;99.90;;;;;;5011980;28;20516;-72
2023/07/13 02:45:07;;;;;;;1999.90;999.90;;;16.20;99.90;;;;;;5012219;28;20649;-72
2023/07/13 02:47:33;;;;;;;1999.90;999.90;;;16.10;99.90;;;;;;5012210;28;20180;-70
2023/07/13 02:49:59;;;;;;;1999.90;999.90;;;16.10;99.90;;;;;;5012272;28;20407;-72
2023/07/13 02:52:25;;;;;;;1999.90;999.90;;;16.00;99.90;;;;;;5011813;28;20501;-70
2023/07/13 02:54:50;;;;;;;1999.90;999.90;;;16.00;99.90;;;;;;5012184;28;20202;-70
2023/07/13 02:57:16;;;;;;;1999.90;999.90;;;16.00;99.90;;;;;;5012172;28;20410;-70
2023/07/13 02:59:42;;;;;;;1999.90;999.90;;;16.00;99.90;;;;;;5011857;28;20623;-70
2023/07/13 03:02:09;;;;;;;1999.90;999.90;;;16.00;99.90;;;;;;5014932;28;20201;-72
2023/07/13 03:04:36;;;;;;;1999.90;999.90;;;15.90;99.90;;;;;;5015958;28;20454;-70
2023/07/13 03:07:03;;;;;;;1999.90;999.90;;;15.90;99.90;;;;;;5015882;28;20414;-71
2023/07/13 03:09:28;;;;;;;1999.90;999.90;;;15.90;99.90;;;;;;5016117;28;20407;-70
2023/07/13 03:11:55;;;;;;;1999.90;999.90;;;15.90;99.90;;;;;;5015664;28;20434;-72
2023/07/13 03:14:22;;;;;;;1999.90;999.90;;;15.90;99.90;;;;;;5016181;28;20535;-72
2023/07/13 03:16:49;;;;;;;1999.90;999.90;;;15.90;99.90;;;;;;5015756;28;20405;-72
2023/07/13 03:19:14;;;;;;;1999.90;999.90;;;15.90;99.90;;;;;;5015682;28;20411;-70
2023/07/13 03:21:40;;;;;;;1999.90;999.90;;;15.90;99.90;;;;;;5015889;28;20427;-70
2023/07/13 03:24:06;;;;;;;1999.90;999.90;;;15.90;99.90;;;;;;5015947;28;20201;-70
2023/07/13 03:26:31;;;;;;;1999.90;999.90;;;15.80;99.90;;;;;;5015882;28;20167;-70
2023/07/13 03:28:57;;;;;;;1999.90;999.90;;;15.80;99.90;;;;;;5015759;28;20795;-72
2023/07/13 03:31:26;;;;;;;1999.90;999.90;;;15.70;99.90;;;;;;5015621;28;20270;-71
2023/07/13 03:33:52;;;;;;;1999.90;999.90;;;15.70;99.90;;;;;;5015847;28;20171;-70
2023/07/13 03:36:23;;;;;;;1999.90;999.90;;;15.70;99.90;;;;;;5015656;28;20469;-72
2023/07/13 03:38:51;;;;;;;1999.90;999.90;;;15.70;99.90;;;;;;5015961;28;20272;-72
2023/07/13 03:41:17;;;;;;;1999.90;999.90;;;15.70;99.90;;;;;;5015757;28;20433;-72
2023/07/13 03:43:43;;;;;;;1999.90;999.90;;;15.60;99.90;;;;;;5015561;28;20540;-72
2023/07/13 03:46:09;;;;;;;1999.90;999.90;;;15.60;99.90;;;;;;5015519;28;20175;-72
2023/07/13 03:48:35;;;;;;;1999.90;999.90;;;15.70;99.90;;;;;;5015531;28;20526;-72
2023/07/13 03:51:00;;;;;;;1999.90;999.90;;;15.70;99.90;;;;;;5015525;28;20424;-72
2023/07/13 03:53:26;;;;;;;1999.90;999.90;;;15.60;99.90;;;;;;5015375;28;20672;-72
2023/07/13 03:55:51;;;;;;;1999.90;999.90;;;15.60;99.90;;;;;;5015213;28;20195;-72
2023/07/13 03:58:35;;;;;;;1999.90;999.90;;;15.70;99.90;;;;;;5014910;28;20645;-72
2023/07/13 04:01:02;;;;;;;1999.90;999.90;;;15.70;99.90;;;;;;5014590;28;20185;-72
2023/07/13 04:03:28;;;;;;;1999.90;999.90;;;15.70;99.90;;;;;;5014810;28;20918;-72
2023/07/13 04:05:59;;;;;;;1999.90;999.90;;;15.70;99.90;;;;;;5014859;28;20495;-72
2023/07/13 04:08:27;;;;;;;1999.90;999.90;;;15.70;99.90;;;;;;5014812;28;20774;-72
2023/07/13 04:10:52;;;;;;;1999.90;999.90;;;15.80;99.90;;;;;;5014576;28;20431;-72
2023/07/13 04:13:18;;;;;;;1999.90;999.90;;;15.80;99.90;;;;;;5013699;28;20409;-72
2023/07/13 04:15:43;;;;;;;1999.90;999.90;;;15.90;99.90;;;;;;5014590;28;20172;-73
2023/07/13 04:18:09;;;;;;;1999.90;999.90;;;15.90;99.90;;;;;;5014666;28;20240;-72
2023/07/13 04:20:34;;;;;;;1999.90;999.90;;;15.90;99.90;;;;;;5014544;28;20645;-72
2023/07/13 04:23:00;;;;;;;1999.90;999.90;;;15.90;99.90;;;;;;5014245;28;20256;-72
2023/07/13 04:25:26;;;;;;;1999.90;999.90;;;16.00;99.90;;;;;;5014456;28;20196;-71
2023/07/13 04:27:53;;;;;;;1999.90;999.90;;;16.10;99.90;;;;;;5014339;28;20179;-72
2023/07/13 04:30:19;;;;;;;1999.90;999.90;;;16.10;99.90;;;;;;5010355;28;21010;-72
2023/07/13 04:32:45;;;;;;;1999.90;999.90;;;16.10;99.90;;;;;;5007157;28;20416;-71
2023/07/13 04:35:11;;;;;;;1999.90;999.90;;;16.00;99.90;;;;;;5014267;28;20483;-71
2023/07/13 04:37:36;;;;;;;1999.90;999.90;;;16.00;99.90;;;;;;5010793;28;20184;-71
2023/07/13 04:40:03;;;;;;;1999.90;999.90;;;16.00;99.90;;;;;;5009508;28;20408;-71
2023/07/13 04:42:29;;;;;;;1999.90;999.90;;;16.10;99.90;;;;;;5013833;28;20201;-72
2023/07/13 04:44:55;;;;;;;1999.90;999.90;;;16.10;99.90;;;;;;5013230;28;21081;-71
2023/07/13 04:47:21;;;;;;;1999.90;999.90;;;16.20;99.90;;;;;;5005826;28;20414;-72
2023/07/13 04:49:47;;;;;;;1999.90;999.90;;;16.20;99.90;;;;;;5009033;28;20791;-71
2023/07/13 04:52:13;;;;;;;1999.90;999.90;;;16.20;99.90;;;;;;5010318;28;20191;-72
2023/07/13 04:54:39;;;;;;;1999.90;999.90;;;16.30;99.90;;;;;;5013846;28;20181;-71
2023/07/13 04:57:08;;;;;;;1999.90;999.90;;;16.40;99.90;;;;;;5006525;28;20906;-72
2023/07/13 04:59:34;;;;;;;1999.90;999.90;;;16.40;99.90;;;;;;5013263;28;20223;-72
2023/07/13 05:02:01;;;;;;;1999.90;999.90;;;16.40;99.90;;;;;;5005371;28;20508;-71
2023/07/13 05:04:27;;;;;;;1999.90;999.90;;;16.50;99.90;;;;;;5013734;28;20457;-72
2023/07/13 05:06:53;;;;;;;1999.90;999.90;;;16.50;99.90;;;;;;5013960;28;20759;-72
2023/07/13 05:09:18;;;;;;;1999.90;999.90;;;16.60;99.90;;;;;;5014119;28;20410;-72
2023/07/13 05:11:44;;;;;;;1999.90;999.90;;;16.60;99.90;;;;;;5013837;28;20199;-72
2023/07/13 05:14:10;;;;;;;1999.90;999.90;;;16.60;99.90;;;;;;5013790;28;20542;-71
2023/07/13 05:16:36;;;;;;;1999.90;999.90;;;16.60;99.90;;;;;;5014100;28;20222;-72
2023/07/13 05:19:02;;;;;;;1999.90;999.90;;;16.60;99.90;;;;;;4998815;28;20257;-72
2023/07/13 05:21:28;;;;;;;1999.90;999.90;;;16.70;99.90;;;;;;4994329;28;20801;-72
2023/07/13 05:23:54;;;;;;;1999.90;999.90;;;16.80;99.90;;;;;;4994098;28;20448;-72
2023/07/13 05:26:20;;;;;;;1999.90;999.90;;;16.80;99.90;;;;;;4994098;28;20474;-72
2023/07/13 05:28:46;;;;;;;1999.90;999.90;;;16.80;99.90;;;;;;4994077;28;20173;-72
2023/07/13 05:31:12;;;;;;;1999.90;999.90;;;17.00;99.90;;;;;;4994012;28;20511;-72
2023/07/13 05:33:38;;;;;;;1999.90;999.90;;;17.00;99.90;;;;;;4994057;28;20419;-72
2023/07/13 05:36:04;;;;;;;1999.90;999.90;;;17.10;99.90;;;;;;4993854;28;20173;-72
2023/07/13 05:38:29;;;;;;;1999.90;999.90;;;17.20;99.90;;;;;;4993695;28;20439;-72
2023/07/13 05:40:56;;;;;;;1999.90;999.90;;;17.30;99.90;;;;;;4993650;28;20280;-72
2023/07/13 05:43:22;;;;;;;1999.90;999.90;;;17.40;99.90;;;;;;4993859;28;20235;-72
2023/07/13 05:45:48;;;;;;;1999.90;999.90;;;17.50;99.90;;;;;;4994098;28;20782;-72
2023/07/13 05:48:14;;;;;;;1999.90;999.90;;;17.50;99.90;;;;;;4993487;28;21048;-72
2023/07/13 05:50:40;;;;;;;1999.90;999.90;;;17.50;99.90;;;;;;4993436;28;20436;-72
2023/07/13 05:53:06;;;;;;;1999.90;999.90;;;17.50;99.90;;;;;;4993312;28;20185;-72
2023/07/13 05:55:32;;;;;;;1999.90;999.90;;;17.50;99.90;;;;;;4993501;28;20410;-71
2023/07/13 05:57:59;;;;;;;1999.90;999.90;;;17.50;99.90;;;;;;4993369;28;20174;-72
2023/07/13 06:00:25;;;;;;;1999.90;999.90;;;17.50;99.90;;;;;;4993429;28;20488;-72
2023/07/13 06:02:50;;;;;;;1999.90;999.90;;;17.50;99.90;;;;;;4993319;28;20409;-72
2023/07/13 06:05:16;;;;;;;1999.90;999.90;;;17.50;99.90;;;;;;4993383;28;20414;-72
2023/07/13 06:07:42;;;;;;;1999.90;999.90;;;17.40;99.90;;;;;;4993406;28;20176;-72
2023/07/13 06:10:08;;;;;;;1999.90;999.90;;;17.50;99.90;;;;;;4993027;28;20174;-72
2023/07/13 06:12:33;;;;;;;1999.90;999.90;;;17.60;99.90;;;;;;4992974;28;20408;-72
2023/07/13 06:14:59;;;;;;;1999.90;999.90;;;17.60;99.90;;;;;;4993206;28;20498;-71
2023/07/13 06:17:24;;;;;;;1999.90;999.90;;;17.50;99.90;;;;;;4993007;28;20178;-71
2023/07/13 06:19:50;;;;;;;1999.90;999.90;;;17.50;99.90;;;;;;4992861;28;20213;-72
2023/07/13 06:22:15;;;;;;;1999.90;999.90;;;17.50;99.90;;;;;;4992385;28;20198;-69
2023/07/13 06:24:41;;;;;;;1999.90;999.90;;;17.50;99.90;;;;;;4992671;28;20666;-71
2023/07/13 06:27:07;;;;;;;1999.90;999.90;;;17.50;99.90;;;;;;4992708;28;20270;-71
2023/07/13 06:29:33;;;;;;;1999.90;999.90;;;17.60;99.90;;;;;;4992999;28;20181;-71
2023/07/13 06:31:58;;;;;;;1999.90;999.90;;;17.70;99.90;;;;;;4992336;28;20535;-72
2023/07/13 06:34:24;;;;;;;1999.90;999.90;;;17.90;99.90;;;;;;4992786;28;20263;-69
2023/07/13 06:36:49;;;;;;;1999.90;999.90;;;18.00;99.90;;;;;;4992252;28;20180;-70
2023/07/13 06:39:15;;;;;;;1999.90;999.90;;;18.00;99.90;;;;;;4992558;28;20212;-72
2023/07/13 06:41:41;;;;;;;1999.90;999.90;;;18.00;99.90;;;;;;4992235;28;20198;-72
2023/07/13 06:44:06;;;;;;;1999.90;999.90;;;17.90;99.90;;;;;;4992504;28;20216;-72
2023/07/13 06:46:32;;;;;;;1999.90;999.90;;;17.90;99.90;;;;;;4992555;28;20180;-72
2023/07/13 06:48:58;;;;;;;1999.90;999.90;;;17.90;99.90;;;;;;4992557;28;20170;-72
2023/07/13 06:51:23;;;;;;;1999.90;999.90;;;18.00;99.90;;;;;;4993941;28;20266;-70
2023/07/13 06:53:50;;;;;;;1999.90;999.90;;;18.10;99.90;;;;;;4999965;28;20221;-70
2023/07/13 06:56:15;;;;;;;1999.90;999.90;;;18.30;99.90;;;;;;4999090;28;20235;-70
2023/07/13 06:58:41;;;;;;;1999.90;999.90;;;18.40;99.90;;;;;;5000651;28;20430;-69
2023/07/13 07:01:06;;;;;;;1999.90;999.90;;;18.70;99.90;;;;;;4997694;28;20192;-69
2023/07/13 07:03:32;;;;;;;1999.90;999.90;;;18.80;99.90;;;;;;4998189;28;20196;-70
2023/07/13 07:06:25;;;;;;;1999.90;999.90;;;18.90;99.90;;;;;;4998463;28;20175;-70
2023/07/13 07:08:52;;;;;;;1999.90;999.90;;;19.10;99.90;;;;;;4998943;28;20616;-70
2023/07/13 07:11:23;;;;;;;1999.90;999.90;;;19.10;99.90;;;;;;4998244;28;20428;-70
2023/07/13 07:13:49;;;;;;;1999.90;999.90;;;19.10;99.90;;;;;;5003084;28;20445;-70
2023/07/13 07:16:15;;;;;;;1999.90;999.90;;;19.00;99.90;;;;;;5006786;28;20472;-69
2023/07/13 07:18:41;;;;;;;1999.90;999.90;;;19.00;99.90;;;;;;4999752;28;20487;-69
2023/07/13 07:21:07;;;;;;;1999.90;999.90;;;19.10;99.90;;;;;;4997550;28;20460;-69
2023/07/13 07:23:33;;;;;;;1999.90;999.90;;;19.10;99.90;;;;;;4993649;28;20195;-70
2023/07/13 07:25:58;;;;;;;1999.90;999.90;;;19.20;99.90;;;;;;4992275;28;20184;-72
2023/07/13 07:28:25;;;;;;;1999.90;999.90;;;19.20;99.90;;;;;;4992210;28;20888;-72
2023/07/13 07:30:55;;;;;;;1999.90;999.90;;;19.00;99.90;;;;;;4993187;28;20238;-71
2023/07/13 07:33:20;;;;;;;1999.90;999.90;;;19.00;99.90;;;;;;5008312;28;20416;-71
2023/07/13 07:35:46;;;;;;;1999.90;999.90;;;18.90;99.90;;;;;;5011669;28;20928;-70
2023/07/13 07:38:12;;;;;;;1999.90;999.90;;;19.00;99.90;;;;;;5011660;28;20174;-70
2023/07/13 07:40:38;;;;;;;1999.90;999.90;;;19.00;99.90;;;;;;5011632;28;20262;-70
2023/07/13 07:43:03;;;;;;;1999.90;999.90;;;19.00;99.90;;;;;;5011389;28;20177;-72
2023/07/13 07:45:30;;;;;;;1999.90;999.90;;;19.10;99.90;;;;;;5011668;28;20785;-72
2023/07/13 07:47:58;;;;;;;1999.90;999.90;;;19.10;99.90;;;;;;5012811;28;20462;-70
2023/07/13 07:50:27;;;;;;;1999.90;999.90;;;19.20;99.90;;;;;;5014974;28;20199;-70
2023/07/13 07:52:55;;;;;;;1999.90;999.90;;;19.30;99.90;;;;;;5014870;28;20405;-70
2023/07/13 07:55:21;;;;;;;1999.90;999.90;;;19.50;99.90;;;;;;5015137;28;20404;-70
2023/07/13 07:57:46;;;;;;;1999.90;999.90;;;19.60;99.90;;;;;;5015109;28;20412;-70
2023/07/13 08:00:13;;;;;;;1999.90;999.90;;;19.80;99.90;;;;;;5006022;28;20195;-72
2023/07/13 08:02:41;;;;;;;1999.90;999.90;;;19.80;99.90;;;;;;5014650;28;20216;-72
2023/07/13 08:05:09;;;;;;;1999.90;999.90;;;19.90;99.90;;;;;;5014721;28;20460;-72
2023/07/13 08:07:37;;;;;;;1999.90;999.90;;;20.20;99.90;;;;;;5014836;28;20386;-72
2023/07/13 08:10:03;;;;;;;1999.90;999.90;;;20.30;99.90;;;;;;5014753;28;20449;-72
2023/07/13 08:12:29;;;;;;;1999.90;999.90;;;20.50;99.90;;;;;;5010523;28;20406;-72
2023/07/13 08:14:57;;;;;;;1999.90;999.90;;;20.60;99.90;;;;;;4999869;28;20426;-72
2023/07/13 08:17:23;;;;;;;1999.90;999.90;;;20.70;99.90;;;;;;4994647;28;20285;-71
2023/07/13 08:19:49;;;;;;;1999.90;999.90;;;20.90;99.90;;;;;;5002860;28;20433;-72
2023/07/13 08:22:15;;;;;;;1999.90;999.90;;;21.00;99.90;;;;;;5004675;28;20460;-72
2023/07/13 08:24:44;;;;;;;1999.90;999.90;;;21.00;99.90;;;;;;5005626;28;20472;-72
2023/07/13 08:27:13;;;;;;;1999.90;999.90;;;21.10;99.90;;;;;;4994236;28;20189;-72
2023/07/13 08:29:39;;;;;;;1999.90;999.90;;;21.10;99.90;;;;;;4997101;28;20419;-72
2023/07/13 08:32:09;;;;;;;1999.90;999.90;;;21.20;99.90;;;;;;4993544;28;20425;-72
2023/07/13 08:34:35;;;;;;;1999.90;999.90;;;21.10;99.90;;;;;;4998537;28;20418;-72
2023/07/13 08:37:02;;;;;;;1999.90;999.90;;;21.00;99.90;;;;;;5005716;28;20500;-73
2023/07/13 08:39:30;;;;;;;1999.90;999.90;;;20.90;99.90;;;;;;5013804;28;20510;-72
2023/07/13 08:42:03;;;;;;;1999.90;999.90;;;20.80;99.90;;;;;;5005051;28;20411;-72
2023/07/13 08:44:55;;;;;;;1999.90;999.90;;;20.80;99.90;;;;;;5013771;28;20464;-72
2023/07/13 08:47:23;;;;;;;1999.90;999.90;;;20.80;99.90;;;;;;5013714;28;20444;-72
2023/07/13 08:49:50;;;;;;;1999.90;999.90;;;20.80;99.90;;;;;;5013275;28;20413;-71
2023/07/13 08:52:41;;;;;;;1999.90;999.90;;;21.00;99.90;;;;;;5013202;28;20915;-71
2023/07/13 08:55:17;;;;;;;1999.90;999.90;;;21.20;99.90;;;;;;5013212;28;20518;-71
2023/07/13 08:57:48;;;;;;;1999.90;999.90;;;21.40;99.90;;;;;;5013414;28;20425;-72
2023/07/13 09:00:15;;;;;;;1999.90;999.90;;;21.30;99.90;;;;;;5008272;28;20406;-72
2023/07/13 09:03:01;;;;;;;1999.90;999.90;;;21.20;99.90;;;;;;5009559;28;20417;-71
2023/07/13 09:05:41;;;;;;;1999.90;999.90;;;21.20;99.90;;;;;;5013722;28;20502;-71
2023/07/13 09:08:07;;;;;;;1999.90;999.90;;;21.30;99.90;;;;;;5019878;28;20408;-71
2023/07/13 09:10:44;;;;;;;1999.90;999.90;;;21.40;99.90;;;;;;5019418;28;20433;-71
2023/07/13 09:13:35;;;;;;;1999.90;999.90;;;21.50;99.90;;;;;;5018984;28;20181;-71
2023/07/13 09:16:02;;;;;;;1999.90;999.90;;;21.80;99.90;;;;;;5019638;28;20403;-71
2023/07/13 09:18:38;;;;;;;1999.90;999.90;;;21.80;99.90;;;;;;5019686;28;20416;-72
2023/07/13 09:21:10;;;;;;;1999.90;999.90;;;21.70;99.90;;;;;;5016306;28;20474;-71
2023/07/13 09:23:36;;;;;;;1999.90;999.90;;;21.70;99.90;;;;;;5008410;28;20481;-72
2023/07/13 09:26:20;;;;;;;1999.90;999.90;;;21.70;99.90;;;;;;5013061;28;20414;-71
2023/07/13 09:28:49;;;;;;;1999.90;999.90;;;21.70;99.90;;;;;;5012758;28;20569;-72
2023/07/13 09:31:24;;;;;;;1999.90;999.90;;;21.80;99.90;;;;;;5007478;28;20988;-73
2023/07/13 09:33:50;;;;;;;1999.90;999.90;;;21.90;99.90;;;;;;4996259;28;20830;-70
2023/07/13 09:36:22;;;;;;;1999.90;999.90;;;21.90;99.90;;;;;;4990589;28;20484;-72
2023/07/13 09:38:53;;;;;;;1999.90;999.90;;;21.90;99.90;;;;;;5002497;28;20437;-71
2023/07/13 09:41:31;;;;;;;1999.90;999.90;;;21.80;99.90;;;;;;5009254;28;20426;-71
2023/07/13 09:44:16;;;;;;;1999.90;999.90;;;21.80;99.90;;;;;;4995564;28;21047;-71
2023/07/13 09:46:47;;;;;;;1999.90;999.90;;;21.80;99.90;;;;;;4991424;28;20430;-71
2023/07/13 09:49:13;;;;;;;1999.90;999.90;;;21.80;99.90;;;;;;5006023;28;20942;-72
2023/07/13 09:51:44;;;;;;;1999.90;999.90;;;21.70;99.90;;;;;;5009048;28;20528;-72
2023/07/13 09:54:21;;;;;;;1999.90;999.90;;;21.90;99.90;;;;;;5001974;28;20420;-72
2023/07/13 09:56:47;;;;;;;1999.90;999.90;;;21.90;99.90;;;;;;4997594;28;20469;-72
2023/07/13 09:59:24;;;;;;;1999.90;999.90;;;22.20;99.90;;;;;;4990501;28;20431;-72
2023/07/13 10:01:50;;;;;;;1999.90;999.90;;;22.40;99.90;;;;;;4990991;28;20200;-70
2023/07/13 10:04:20;;;;;;;1999.90;999.90;;;22.40;99.90;;;;;;4988936;28;21226;-71
2023/07/13 10:06:46;;;;;;;1999.90;999.90;;;22.40;99.90;;;;;;4991025;28;20213;-71
2023/07/13 10:09:17;;;;;;;1999.90;999.90;;;22.50;99.90;;;;;;4991549;28;20409;-73
2023/07/13 10:11:44;;;;;;;1999.90;999.90;;;22.90;99.90;;;;;;4988615;28;20446;-73
2023/07/13 10:14:20;;;;;;;1999.90;999.90;;;23.30;99.90;;;;;;4990525;28;20415;-73
2023/07/13 10:16:46;;;;;;;1999.90;999.90;;;23.30;99.90;;;;;;4989048;28;20399;-75
2023/07/13 10:19:27;;;;;;;1999.90;999.90;;;23.20;99.50;;;;;;4990066;28;20402;-74
2023/07/13 10:21:59;;;;;;;1999.90;999.90;;;23.10;99.10;;;;;;4990524;28;20769;-73
2023/07/13 10:24:27;;;;;;;1999.90;999.90;;;23.30;99.90;;;;;;4989673;28;20423;-73
2023/07/13 10:27:19;;;;;;;1999.90;999.90;;;23.40;99.90;;;;;;5003925;28;20475;-72
2023/07/13 10:30:04;;;;;;;1999.90;999.90;;;23.30;99.90;;;;;;4994739;28;20441;-70
2023/07/13 10:32:30;;;;;;;1999.90;999.90;;;23.30;99.90;;;;;;5005220;28;20407;-71
2023/07/13 10:34:57;;;;;;;1999.90;999.90;;;23.10;99.90;;;;;;5003404;28;20485;-72
2023/07/13 10:37:27;;;;;;;1999.90;999.90;;;22.90;99.90;;;;;;5008509;28;20642;-72
2023/07/13 10:39:55;;;;;;;1999.90;999.90;;;23.00;99.90;;;;;;5009006;28;20427;-74
2023/07/13 10:42:35;;;;;;;1999.90;999.90;;;22.90;99.90;;;;;;5007964;28;20776;-72
2023/07/13 10:45:01;;;;;;;1999.90;999.90;;;22.80;99.90;;;;;;5007862;28;20433;-72
2023/07/13 10:47:27;;;;;;;1999.90;999.90;;;22.90;99.90;;;;;;5008123;28;20389;-72
2023/07/13 10:49:58;;;;;;;1999.90;999.90;;;23.10;99.90;;;;;;5006637;28;20184;-73
2023/07/13 10:52:46;;;;;;;1999.90;999.90;;;23.30;99.90;;;;;;4997728;28;20429;-72
2023/07/13 10:55:57;;;;;;;1999.90;999.90;;;23.50;99.90;;;;;;5000272;28;20427;-73
2023/07/13 10:58:33;;;;;;;1999.90;999.90;;;23.70;97.80;;;;;;4988593;28;20779;-72
2023/07/13 11:01:13;;;;;;;1999.90;999.90;;;23.70;96.60;;;;;;5007653;28;20482;-71
2023/07/13 11:03:59;;;;;;;1999.90;999.90;;;23.40;96.40;;;;;;5007727;28;20504;-72
2023/07/13 11:06:30;;;;;;;1999.90;999.90;;;23.10;98.40;;;;;;5008291;28;20488;-71
2023/07/13 11:09:17;;;;;;;1999.90;999.90;;;22.80;97.30;;;;;;5008440;28;20418;-72
2023/07/13 11:11:43;;;;;;;1999.90;999.90;;;22.60;98.70;;;;;;5007435;28;20473;-72
2023/07/13 11:15:06;;;;;;;1999.90;999.90;;;22.60;98.60;;;;;;5009045;28;20463;-72
2023/07/13 11:17:58;;;;;;;1999.90;999.90;;;22.60;96.80;;;;;;5006232;28;20207;-71
2023/07/13 11:20:35;;;;;;;1999.90;999.90;;;22.70;96.10;;;;;;5007739;28;20719;-73
2023/07/13 11:23:17;;;;;;;1999.90;999.90;;;22.90;97.40;;;;;;5010564;28;20494;-72
2023/07/13 11:25:43;;;;;;;1999.90;999.90;;;23.20;97.70;;;;;;5011671;28;20776;-72
2023/07/13 11:28:12;;;;;;;1999.90;999.90;;;23.30;97.90;;;;;;5011417;28;20391;-73
2023/07/13 11:30:42;;;;;;;1999.90;999.90;;;23.40;94.80;;;;;;5011042;28;20410;-73
2023/07/13 11:33:22;;;;;;;1999.90;999.90;;;23.40;92.80;;;;;;5011197;28;20930;-72
2023/07/13 11:35:51;;;;;;;1999.90;999.90;;;23.20;93.60;;;;;;5011536;28;20452;-72
2023/07/13 11:38:41;;;;;;;1999.90;999.90;;;23.00;93.40;;;;;;5011766;28;20487;-72
2023/07/13 11:41:29;;;;;;;1999.90;999.90;;;22.80;92.90;;;;;;5010277;28;20468;-72
2023/07/13 11:44:07;;;;;;;1999.90;999.90;;;22.70;92.50;;;;;;5010875;28;20457;-72
2023/07/13 11:46:33;;;;;;;1999.90;999.90;;;22.90;93.00;;;;;;5010928;28;20845;-72
2023/07/13 11:48:58;;;;;;;1999.90;999.90;;;23.20;92.90;;;;;;5010469;28;20418;-72
2023/07/13 11:51:31;;;;;;;1999.90;999.90;;;23.30;91.50;;;;;;5011241;28;20279;-72
2023/07/13 11:53:59;;;;;;;1999.90;999.90;;;23.60;90.60;;;;;;5011414;28;20745;-72
2023/07/13 11:56:25;;;;;;;1999.90;999.90;;;23.80;87.50;;;;;;5010234;28;20433;-72
2023/07/13 11:58:54;;;;;;;1999.90;999.90;;;23.60;85.90;;;;;;5010825;28;20406;-72
2023/07/13 12:01:26;;;;;;;1999.90;999.90;;;23.90;85.80;;;;;;5011143;28;20436;-72
2023/07/13 12:03:53;;;;;;;1999.90;999.90;;;24.20;85.60;;;;;;5010429;28;20445;-72
2023/07/13 12:06:26;;;;;;;1999.90;999.90;;;24.40;88.20;;;;;;5010696;28;20889;-72